Time;durP1;ratioP1;P1;durP2;ratioP2;P2;SDS_P1;SDS_P2;PMS_P1;PMS_P2;Temp;Humidity;BMP_temperature;BMP_pressure;BME280_temperature;BME280_humidity;BME280_pressure;Samples;Min_cycle;Max_cycle;Signal;HPM_P1;HPM_P2
2023/05/10 00:02:13;;;;;;;;;;;;;;;7.94;78.30;101520.22;4936462;28;20402;-95
2023/05/10 00:04:58;;;;;;;;;;;;;;;7.94;78.52;101514.03;5006094;28;20041;-93
2023/05/10 00:13:22;;;;;;;;;;;;;;;7.80;78.47;101507.94;5163147;22;19941;-92
2023/05/10 00:16:42;;;;;;;;;;;;;;;7.72;78.79;101502.31;4950800;28;19915;-93
2023/05/10 00:22:44;;;;;;;;;;;;;;;7.75;78.92;101504.78;5022057;28;19984;-95
2023/05/10 00:25:51;;;;;;;;;;;;;;;;;;;;;
2023/05/10 00:28:13;;;;;;;;;;;;;;;7.76;78.73;101506.47;5030324;28;19913;-94
2023/05/10 00:30:39;;;;;;;;;;;;;;;7.64;79.35;101511.97;5012975;28;19993;-95
2023/05/10 00:33:49;;;;;;;;;;;;;;;7.65;79.31;101508.28;5067513;23;19925;-93
2023/05/10 00:36:21;;;;;;;;;;;;;;;7.49;79.71;101492.59;5032971;28;19941;-96
2023/05/10 00:38:58;;;;;;;;;;;;;;;7.61;79.82;101507.69;5024914;23;19943;-94
2023/05/10 00:41:46;;;;;;;;;;;;;;;7.67;79.44;101499.16;5010695;28;19941;-95
2023/05/10 00:44:32;;;;;;;;;;;;;;;7.65;79.37;101503.78;5018866;28;19917;-94
2023/05/10 00:49:55;;;;;;;;;;;;;;;7.77;79.12;101499.28;5104102;23;20003;-95
2023/05/10 00:52:47;;;;;;;;;;;;;;;7.71;78.98;101497.97;5008718;28;19921;-91
2023/05/10 00:55:20;;;;;;;;;;;;;;;7.71;79.00;101495.28;5017356;28;20337;-96
2023/05/10 00:58:03;;;;;;;;;;;;;;;7.75;79.11;101494.06;5001459;28;19925;-96
2023/05/10 01:00:59;;;;;;;;;;;;;;;7.78;79.17;101493.81;4948999;29;19947;-93
2023/05/10 01:04:12;;;;;;;;;;;;;;;7.78;79.29;101493.81;4919117;29;19923;-93
2023/05/10 01:06:46;;;;;;;;;;;;;;;7.79;79.60;101495.50;4932214;29;19927;-96
2023/05/10 01:09:26;;;;;;;;;;;;;;;7.81;79.62;101492.72;4933478;28;20007;-93
2023/05/10 01:12:16;;;;;;;;;;;;;;;7.83;79.36;101485.41;4945004;29;20002;-92
2023/05/10 01:14:47;;;;;;;;;;;;;;;7.80;79.22;101491.88;4934202;28;19954;-93
2023/05/10 01:17:38;;;;;;;;;;;;;;;7.82;79.04;101494.44;4994309;22;19913;-92
2023/05/10 01:20:09;;;;;;;;;;;;;;;7.90;78.86;101493.81;5014624;23;19930;-94
2023/05/10 01:22:54;;;;;;;;;;;;;;;7.94;78.38;101492.59;4994751;28;20004;-91
2023/05/10 01:25:47;;;;;;;;;;;;;;;7.83;78.73;101499.66;5011619;28;19944;-92
2023/05/10 01:28:44;;;;;;;;;;;;;;;7.76;79.13;101495.75;4994976;28;19984;-93
2023/05/10 01:31:35;;;;;;;;;;;;;;;7.63;79.63;101488.81;5002940;28;19918;-95
2023/05/10 01:34:32;;;;;;;;;;;;;;;7.67;79.51;101491.13;4990390;28;20015;-94
2023/05/10 01:37:22;;;;;;;;;;;;;;;7.65;79.66;101493.09;4952655;28;19922;-93
2023/05/10 01:40:22;;;;;;;;;;;;;;;7.64;79.50;101491.38;4949677;28;19923;-93
2023/05/10 01:43:07;;;;;;;;;;;;;;;7.48;80.39;101491.75;4960023;28;19926;-92
2023/05/10 01:45:38;;;;;;;;;;;;;;;7.38;80.76;101485.44;4958783;28;19949;-95
2023/05/10 01:48:23;;;;;;;;;;;;;;;7.37;80.97;101491.72;4923273;28;19944;-94
2023/05/10 01:50:58;;;;;;;;;;;;;;;7.35;81.41;101485.63;4956719;28;19926;-92
2023/05/10 01:53:38;;;;;;;;;;;;;;;7.33;81.60;101484.94;4955337;28;19930;-94
2023/05/10 01:56:09;;;;;;;;;;;;;;;7.33;81.87;101493.81;4956024;28;19922;-93
2023/05/10 02:01:34;;;;;;;;;;;;;;;7.26;82.35;101492.59;4956877;28;19933;-92
2023/05/10 02:07:14;;;;;;;;;;;;;;;7.30;82.31;101488.69;4931454;29;20063;-91
2023/05/10 02:09:48;;;;;;;;;;;;;;;7.26;82.08;101486.34;4953528;29;19934;-92
2023/05/10 02:12:54;;;;;;;;;;;;;;;7.29;82.13;101481.63;4956150;29;20011;-94
2023/05/10 02:15:26;;;;;;;;;;;;;;;7.24;82.27;101483.81;4968928;28;19944;-95
2023/05/10 02:21:07;;;;;;;;;;;;;;;7.12;82.61;101474.09;5000832;28;19944;-93
2023/05/10 02:23:38;;;;;;;;;;;;;;;7.20;82.57;101493.03;4991828;28;19968;-89
2023/05/10 02:26:10;;;;;;;;;;;;;;;7.22;82.52;101488.44;5001991;28;19933;-94
2023/05/10 02:28:56;;;;;;;;;;;;;;;7.19;82.93;101491.34;4989709;28;20002;-95
2023/05/10 02:31:30;;;;;;;;;;;;;;;7.20;82.69;101487.69;4960805;28;19926;-94
2023/05/10 02:34:00;;;;;;;;;;;;;;;7.20;82.57;101490.38;4988803;28;19930;-94
2023/05/10 02:36:56;;;;;;;;;;;;;;;7.20;82.55;101485.03;4996014;28;19964;-93
2023/05/10 02:40:13;;;;;;;;;;;;;;;7.22;82.60;101482.25;4997254;28;19922;-95
2023/05/10 02:43:06;;;;;;;;;;;;;;;7.28;82.65;101485.28;4966825;28;19999;-93
2023/05/10 02:45:57;;;;;;;;;;;;;;;7.33;82.52;101483.09;4970841;28;19930;-94
2023/05/10 02:48:53;;;;;;;;;;;;;;;7.28;82.65;101485.28;4990162;28;19956;-96
2023/05/10 02:51:46;;;;;;;;;;;;;;;7.35;82.54;101486.50;4984178;28;19926;-95
2023/05/10 02:54:33;;;;;;;;;;;;;;;7.36;82.28;101482.84;5082854;23;19938;-93
2023/05/10 02:57:24;;;;;;;;;;;;;;;7.37;82.17;101487.25;5014592;28;19960;-95
2023/05/10 03:00:00;;;;;;;;;;;;;;;7.35;82.34;101485.63;5002510;28;19925;-94
2023/05/10 03:02:44;;;;;;;;;;;;;;;7.38;82.14;101486.25;4994434;28;19925;-94
2023/05/10 03:06:13;;;;;;;;;;;;;;;7.30;82.31;101487.81;4978052;28;20014;-93
2023/05/10 03:09:19;;;;;;;;;;;;;;;7.35;82.40;101488.31;4978606;28;19958;-94
2023/05/10 03:12:17;;;;;;;;;;;;;;;7.38;82.37;101491.63;4972202;28;19930;-93
2023/05/10 03:15:15;;;;;;;;;;;;;;;7.42;82.43;101496.72;4925251;29;20018;-93
2023/05/10 03:21:24;;;;;;;;;;;;;;;7.56;82.14;101496.47;5070183;23;19948;-93
2023/05/10 03:24:15;;;;;;;;;;;;;;;7.56;82.09;101493.81;5004723;28;19925;-95
2023/05/10 03:26:52;;;;;;;;;;;;;;;7.59;82.23;101496.25;5022485;28;19937;-92
2023/05/10 03:29:20;;;;;;;;;;;;;;;7.72;81.76;101491.63;5029566;28;19997;-94
2023/05/10 03:32:18;;;;;;;;;;;;;;;7.74;81.79;101491.50;5008159;28;20305;-95
2023/05/10 03:34:51;;;;;;;;;;;;;;;7.82;81.55;101491.75;5018391;28;19965;-95
2023/05/10 03:37:44;;;;;;;;;;;;;;;7.90;81.36;101491.13;5008675;28;19950;-94
2023/05/10 03:40:12;;;;;;;;;;;;;;;7.92;81.37;101489.19;5018307;28;19938;-92
2023/05/10 03:42:54;;;;;;;;;;;;;;;7.95;81.18;101494.28;5017306;28;19940;-94
2023/05/10 03:45:23;;;;;;;;;;;;;;;8.00;81.24;101502.81;5004207;28;20089;-94
2023/05/10 03:48:09;;;;;;;;;;;;;;;8.05;81.06;101508.63;5010893;28;20310;-96
2023/05/10 03:51:13;;;;;;;;;;;;;;;8.06;80.96;101509.50;5000100;28;19925;-94
2023/05/10 03:56:28;;;;;;;;;;;;;;;8.27;80.49;101505.06;5091119;22;19934;-90
2023/05/10 03:58:55;;;;;;;;;;;;;;;8.38;80.21;101506.84;5014407;28;20037;-90
2023/05/10 04:01:26;;;;;;;;;;;;;;;8.43;80.20;101507.38;4999744;28;19921;-93
2023/05/10 04:03:52;;;;;;;;;;;;;;;8.44;80.08;101506.41;5024361;28;19949;-91
2023/05/10 04:06:20;;;;;;;;;;;;;;;8.56;79.75;101505.38;5026340;28;19930;-92
2023/05/10 04:08:59;;;;;;;;;;;;;;;8.66;79.58;101508.13;5008538;28;19926;-94
2023/05/10 04:11:28;;;;;;;;;;;;;;;8.66;79.64;101505.47;5032326;28;19910;-91
2023/05/10 04:14:15;;;;;;;;;;;;;;;8.79;79.50;101507.97;5039736;28;20054;-92
2023/05/10 04:16:46;;;;;;;;;;;;;;;8.86;79.28;101510.00;5027088;28;20001;-91
2023/05/10 04:19:18;;;;;;;;;;;;;;;8.94;79.31;101512.03;5019492;28;19929;-92
2023/05/10 04:21:46;;;;;;;;;;;;;;;9.08;79.08;101503.69;5035860;28;20005;-90
2023/05/10 04:24:21;;;;;;;;;;;;;;;9.14;78.79;101502.31;5012880;28;19933;-89
2023/05/10 04:27:12;;;;;;;;;;;;;;;9.22;78.24;101502.50;5031226;23;20105;-93
2023/05/10 04:30:30;;;;;;;;;;;;;;;9.35;77.93;101501.47;5047673;28;19952;-93
2023/05/10 04:33:16;;;;;;;;;;;;;;;9.54;77.37;101506.06;5027644;28;19929;-94
2023/05/10 04:35:57;;;;;;;;;;;;;;;9.76;76.92;101511.25;5018813;28;19951;-92
2023/05/10 04:38:54;;;;;;;;;;;;;;;10.05;75.65;101513.22;5028790;28;19970;-94
2023/05/10 04:41:24;;;;;;;;;;;;;;;10.40;74.19;101503.84;5034424;28;19925;-92
2023/05/10 04:43:50;;;;;;;;;;;;;;;10.66;73.66;101502.31;4982018;28;19929;-93
2023/05/10 04:46:41;;;;;;;;;;;;;;;10.89;72.62;101504.72;5021616;28;19905;-92
2023/05/10 04:49:14;;;;;;;;;;;;;;;11.26;71.10;101502.13;5044683;28;20023;-92
2023/05/10 04:51:56;;;;;;;;;;;;;;;11.53;69.53;101501.34;5031627;28;19921;-94
2023/05/10 04:54:57;;;;;;;;;;;;;;;11.87;67.72;101494.53;4996630;28;20120;-96
2023/05/10 04:58:04;;;;;;;;;;;;;;;12.12;67.27;101495.72;4978212;28;19957;-93
2023/05/10 05:00:35;;;;;;;;;;;;;;;12.36;66.16;101497.84;4983706;28;19956;-92
2023/05/10 05:03:04;;;;;;;;;;;;;;;12.55;64.68;101499.53;4951223;28;19918;-93
2023/05/10 05:05:51;;;;;;;;;;;;;;;12.82;65.42;101494.06;4988901;28;19926;-93
2023/05/10 05:08:17;;;;;;;;;;;;;;;13.05;63.51;101485.50;4973750;28;19922;-90
2023/05/10 05:10:47;;;;;;;;;;;;;;;13.25;61.16;101487.00;4969939;28;20108;-94
2023/05/10 05:13:14;;;;;;;;;;;;;;;13.20;60.17;101488.47;4988500;28;19925;-92
2023/05/10 05:15:53;;;;;;;;;;;;;;;13.27;60.60;101490.44;4996637;28;19929;-92
2023/05/10 05:18:18;;;;;;;;;;;;;;;13.38;59.96;101496.56;5004266;28;19921;-90
2023/05/10 05:20:46;;;;;;;;;;;;;;;13.51;58.85;101495.13;4992282;28;19926;-90
2023/05/10 05:23:14;;;;;;;;;;;;;;;13.55;57.95;101492.09;4974066;28;20389;-91
2023/05/10 05:25:41;;;;;;;;;;;;;;;13.85;58.23;101499.69;5002579;28;20286;-91
2023/05/10 05:28:09;;;;;;;;;;;;;;;13.83;57.48;101499.00;5005613;28;19921;-90
2023/05/10 05:30:35;;;;;;;;;;;;;;;14.04;57.41;101498.56;4992681;28;19957;-94
2023/05/10 05:33:03;;;;;;;;;;;;;;;13.95;57.82;101504.97;5023819;28;19921;-89
2023/05/10 05:35:29;;;;;;;;;;;;;;;14.10;57.78;101502.50;5002036;28;19921;-93
2023/05/10 05:37:56;;;;;;;;;;;;;;;13.92;57.52;101495.31;5026651;28;19987;-92
2023/05/10 05:40:21;;;;;;;;;;;;;;;13.98;57.82;101504.66;5020420;28;19929;-89
2023/05/10 05:42:46;;;;;;;;;;;;;;;13.99;57.90;101495.53;5027307;28;19925;-89
2023/05/10 05:45:16;;;;;;;;;;;;;;;14.20;57.62;101492.38;5026171;28;20103;-89
2023/05/10 05:47:43;;;;;;;;;;;;;;;14.45;56.70;101501.41;5003149;28;19975;-90
2023/05/10 05:50:08;;;;;;;;;;;;;;;14.56;56.15;101503.84;4992881;28;19928;-89
2023/05/10 05:52:40;;;;;;;;;;;;;;;14.78;55.31;101498.78;5016578;28;19921;-90
2023/05/10 05:55:08;;;;;;;;;;;;;;;14.88;54.93;101491.34;5008398;28;19932;-91
2023/05/10 05:57:34;;;;;;;;;;;;;;;14.64;54.12;101502.16;5031114;28;19982;-91
2023/05/10 05:59:59;;;;;;;;;;;;;;;14.43;54.83;101500.72;5009045;28;19980;-90
2023/05/10 06:02:26;;;;;;;;;;;;;;;14.56;54.31;101506.56;4995817;28;19921;-90
2023/05/10 06:04:55;;;;;;;;;;;;;;;14.47;54.98;101509.34;5032003;28;19921;-91
2023/05/10 06:07:20;;;;;;;;;;;;;;;14.48;55.52;101511.06;4997588;28;20365;-91
2023/05/10 06:09:47;;;;;;;;;;;;;;;14.67;55.23;101499.94;5024603;28;20371;-90
2023/05/10 06:12:13;;;;;;;;;;;;;;;15.16;54.08;101502.66;4998032;28;19943;-90
2023/05/10 06:14:40;;;;;;;;;;;;;;;15.51;52.49;101505.16;5023677;28;20016;-91
2023/05/10 06:17:06;;;;;;;;;;;;;;;15.82;52.96;101506.09;4989861;28;20336;-90
2023/05/10 06:19:32;;;;;;;;;;;;;;;15.48;51.43;101508.22;4996685;28;19999;-89
2023/05/10 06:21:58;;;;;;;;;;;;;;;15.18;52.96;101507.94;5030598;28;19975;-87
2023/05/10 06:24:26;;;;;;;;;;;;;;;15.24;52.24;101511.81;5012470;28;19968;-88
2023/05/10 06:26:53;;;;;;;;;;;;;;;15.61;51.49;101508.53;4983840;28;20275;-91
2023/05/10 06:29:29;;;;;;;;;;;;;;;15.86;50.22;101505.78;5018222;28;19921;-93
2023/05/10 06:32:14;;;;;;;;;;;;;;;16.41;49.83;101510.25;5049124;28;19913;-93
2023/05/10 06:35:01;;;;;;;;;;;;;;;16.63;48.73;101509.44;4991263;28;19925;-95
2023/05/10 06:37:52;;;;;;;;;;;;;;;16.20;48.82;101506.31;5013990;28;19950;-96
2023/05/10 06:40:21;;;;;;;;;;;;;;;15.73;49.50;101509.91;4997829;23;19982;-91
2023/05/10 06:43:19;;;;;;;;;;;;;;;15.77;50.15;101507.66;4995056;28;19930;-92
2023/05/10 06:45:55;;;;;;;;;;;;;;;15.55;51.93;101509.22;5012297;28;20377;-94
2023/05/10 06:48:23;;;;;;;;;;;;;;;15.77;51.11;101513.09;4997332;28;20008;-93
2023/05/10 06:50:50;;;;;;;;;;;;;;;15.63;50.77;101514.63;4971752;28;19993;-92
2023/05/10 06:53:28;;;;;;;;;;;;;;;15.78;50.64;101514.75;4970192;28;19918;-94
2023/05/10 06:56:04;;;;;;;;;;;;;;;15.74;49.28;101518.88;5002966;28;20391;-94
2023/05/10 06:58:32;;;;;;;;;;;;;;;15.72;49.77;101507.34;4990501;28;20874;-93
2023/05/10 07:01:08;;;;;;;;;;;;;;;15.78;49.80;101521.06;5014782;28;19933;-96
2023/05/10 07:08:40;;;;;;;;;;;;;;;16.20;48.44;101514.44;5017762;28;19975;-92
2023/05/10 07:11:24;;;;;;;;;;;;;;;16.17;47.91;101520.22;5000221;28;19921;-94
2023/05/10 07:13:51;;;;;;;;;;;;;;;16.10;48.26;101519.22;4980997;28;19921;-92
2023/05/10 07:16:17;;;;;;;;;;;;;;;16.02;47.92;101525.53;4985853;28;19917;-91
2023/05/10 07:18:42;;;;;;;;;;;;;;;15.74;49.18;101518.88;5019438;28;19914;-93
2023/05/10 07:21:14;;;;;;;;;;;;;;;16.03;49.17;101523.66;4995079;28;19960;-95
2023/05/10 07:23:45;;;;;;;;;;;;;;;16.43;49.16;101524.47;5018680;28;19975;-93
2023/05/10 07:26:12;;;;;;;;;;;;;;;17.35;47.31;101516.34;5002681;28;19925;-89
2023/05/10 07:28:55;;;;;;;;;;;;;;;17.44;46.88;101534.28;5020495;28;19985;-91
2023/05/10 07:31:22;;;;;;;;;;;;;;;18.06;45.38;101530.38;5017138;28;19977;-90
2023/05/10 07:33:48;;;;;;;;;;;;;;;18.44;45.17;101532.09;5017266;28;19914;-85
2023/05/10 08:13:12;;;;;;;;;;;;;;;20.39;42.25;101535.13;5030542;28;19925;-93
2023/05/10 08:15:57;;;;;;;;;;;;;;;20.03;41.02;101535.38;5006785;28;19948;-89
2023/05/10 08:18:24;;;;;;;;;;;;;;;20.05;40.48;101535.19;5001635;28;19921;-89
2023/05/10 08:20:50;;;;;;;;;;;;;;;20.70;40.25;101541.97;4992783;28;19979;-87
2023/05/10 08:23:37;;;;;;;;;;;;;;;20.23;42.30;101551.84;4989146;28;20409;-91
2023/05/10 08:26:03;;;;;;;;;;;;;;;19.34;43.07;101550.63;5007584;28;19917;-91
2023/05/10 08:28:29;;;;;;;;;;;;;;;20.34;42.20;101547.69;5011302;28;19922;-92
2023/05/10 08:31:03;;;;;;;;;;;;;;;21.07;40.48;101550.63;4992196;28;20055;-93
2023/05/10 08:33:36;;;;;;;;;;;;;;;19.38;43.48;101537.44;5000854;28;19921;-93
2023/05/10 08:36:06;;;;;;;;;;;;;;;18.69;44.48;101547.03;5012247;28;19918;-92
2023/05/10 08:38:51;;;;;;;;;;;;;;;17.97;46.67;101550.56;4995486;28;20142;-93
2023/05/10 08:41:18;;;;;;;;;;;;;;;17.90;47.77;101545.00;4989318;28;20033;-86
2023/05/10 08:43:46;;;;;;;;;;;;;;;19.55;45.22;101555.19;4988549;28;19921;-87
2023/05/10 08:46:15;;;;;;;;;;;;;;;21.01;41.02;101544.09;4998556;28;19917;-86
2023/05/10 08:48:40;;;;;;;;;;;;;;;22.04;38.75;101548.25;5000318;28;19997;-87
2023/05/10 08:51:06;;;;;;;;;;;;;;;21.96;38.45;101557.53;4980377;28;19971;-87
2023/05/10 08:53:33;;;;;;;;;;;;;;;23.17;36.70;101558.66;4992624;28;20371;-88
2023/05/10 08:55:58;;;;;;;;;;;;;;;22.36;37.92;101560.16;4995696;28;20032;-86
2023/05/10 08:58:24;;;;;;;;;;;;;;;22.52;37.82;101558.81;4993961;28;19945;-84
2023/05/10 09:00:50;;;;;;;;;;;;;;;23.98;34.60;101556.88;4975484;28;20971;-86
2023/05/10 09:03:16;;;;;;;;;;;;;;;23.50;35.54;101563.00;4994610;28;19928;-86
2023/05/10 09:05:42;;;;;;;;;;;;;;;22.34;37.17;101556.81;4984166;28;19922;-86
2023/05/10 09:08:09;;;;;;;;;;;;;;;23.25;36.16;101555.63;4979593;28;20291;-87
2023/05/10 09:10:37;;;;;;;;;;;;;;;21.14;39.92;101559.69;4975344;28;19925;-85
2023/05/10 09:13:03;;;;;;;;;;;;;;;19.96;41.34;101557.16;4978621;28;19973;-87
2023/05/10 09:15:29;;;;;;;;;;;;;;;21.91;38.99;101557.31;4961816;28;20403;-87
2023/05/10 09:17:55;;;;;;;;;;;;;;;20.84;39.27;101553.75;4973952;28;19989;-86
2023/05/10 09:20:21;;;;;;;;;;;;;;;21.13;39.93;101552.53;4988336;28;19932;-86
2023/05/10 09:22:46;;;;;;;;;;;;;;;23.29;36.86;101543.13;5010466;28;19929;-88
2023/05/10 09:25:12;;;;;;;;;;;;;;;23.96;34.73;101548.84;4982331;28;19922;-86
2023/05/10 09:27:39;;;;;;;;;;;;;;;23.19;35.39;101556.53;4984403;28;19929;-86
2023/05/10 09:30:05;;;;;;;;;;;;;;;24.15;33.48;101543.34;4983213;28;19918;-85
2023/05/10 09:32:40;;;;;;;;;;;;;;;23.26;34.17;101556.47;4992173;28;20307;-86
2023/05/10 09:35:06;;;;;;;;;;;;;;;24.11;33.17;101544.88;4991925;28;20013;-87
2023/05/10 09:37:36;;;;;;;;;;;;;;;23.34;33.36;101556.19;4973485;28;19922;-87
2023/05/10 09:40:07;;;;;;;;;;;;;;;23.84;32.28;101545.19;4989700;28;19999;-86
2023/05/10 09:42:33;;;;;;;;;;;;;;;23.07;33.71;101555.56;4992959;28;19947;-87
2023/05/10 09:45:03;;;;;;;;;;;;;;;24.42;31.63;101546.63;4982896;28;20013;-87
2023/05/10 09:47:30;;;;;;;;;;;;;;;23.09;32.77;101550.72;4989509;28;20060;-86
2023/05/10 09:49:58;;;;;;;;;;;;;;;24.63;30.44;101554.38;5003324;28;19929;-87
2023/05/10 09:52:23;;;;;;;;;;;;;;;25.61;28.98;101545.84;4988331;28;19918;-87
2023/05/10 09:54:52;;;;;;;;;;;;;;;23.89;30.78;101550.81;4979364;28;19929;-86
2023/05/10 09:57:22;;;;;;;;;;;;;;;24.76;29.80;101558.00;4989528;28;20060;-86
2023/05/10 09:59:47;;;;;;;;;;;;;;;26.19;27.56;101552.38;4990212;28;19944;-86
2023/05/10 10:02:13;;;;;;;;;;;;;;;27.67;26.25;101543.19;4962085;28;19926;-87
2023/05/10 10:04:42;;;;;;;;;;;;;;;24.72;30.00;101554.88;4987862;28;19924;-86
2023/05/10 10:07:08;;;;;;;;;;;;;;;24.15;31.94;101546.94;4991618;28;20023;-87
2023/05/10 10:09:33;;;;;;;;;;;;;;;26.28;29.25;101540.75;4998612;28;19921;-87
2023/05/10 10:11:59;;;;;;;;;;;;;;;25.01;29.97;101549.59;4982503;28;19975;-86
2023/05/10 10:14:24;;;;;;;;;;;;;;;24.20;30.87;101558.06;4985332;28;20015;-85
2023/05/10 10:16:50;;;;;;;;;;;;;;;23.11;32.82;101565.03;5007678;28;19944;-89
2023/05/10 10:19:16;;;;;;;;;;;;;;;23.30;32.49;101560.47;4990881;28;20077;-87
2023/05/10 10:21:42;;;;;;;;;;;;;;;24.38;30.11;101564.63;4979413;28;20085;-86
2023/05/10 10:24:10;;;;;;;;;;;;;;;23.92;30.25;101550.38;4987263;28;19984;-87
2023/05/10 10:26:36;;;;;;;;;;;;;;;23.82;31.04;101560.22;5007861;28;19918;-86
2023/05/10 10:29:07;;;;;;;;;;;;;;;25.28;28.14;101570.13;4993854;28;20024;-89
2023/05/10 10:34:36;;;;;;;;;;;;;;;23.72;30.71;101549.72;5008381;28;20077;-85
2023/05/10 10:37:05;;;;;;;;;;;;;;;23.22;31.39;101561.56;5028862;28;19964;-90
2023/05/10 10:39:31;;;;;;;;;;;;;;;23.00;32.59;101565.75;5007590;28;19968;-82
2023/05/10 10:41:58;;;;;;;;;;;;;;;22.97;32.78;101553.28;5023179;28;20322;-87
2023/05/10 10:44:27;;;;;;;;;;;;;;;21.61;35.26;101552.34;4980647;28;20024;-86
2023/05/10 10:47:24;;;;;;;;;;;;;;;22.25;34.25;101563.59;4983113;28;19921;-88
2023/05/10 10:49:51;;;;;;;;;;;;;;;21.50;34.38;101558.47;4994888;28;19918;-86
2023/05/10 10:52:28;;;;;;;;;;;;;;;20.72;35.78;101564.47;4988457;28;20294;-86
2023/05/10 10:55:01;;;;;;;;;;;;;;;20.14;37.98;101564.00;5009432;28;19929;-86
2023/05/10 10:57:26;;;;;;;;;;;;;;;18.95;40.63;101564.75;4998751;28;19918;-86
2023/05/10 10:59:52;;;;;;;;;;;;;;;18.30;41.68;101566.47;4983260;28;20020;-85
2023/05/10 11:02:37;;;;;;;;;;;;;;;18.65;41.03;101575.69;4986648;28;19922;-88
2023/05/10 11:05:22;;;;;;;;;;;;;;;19.46;38.91;101570.03;4917413;29;20022;-88
2023/05/10 11:07:51;;;;;;;;;;;;;;;19.72;38.91;101565.84;5003626;28;19924;-85
2023/05/10 11:10:21;;;;;;;;;;;;;;;20.23;38.18;101566.34;4992813;28;19983;-84
2023/05/10 11:12:54;;;;;;;;;;;;;;;20.43;38.26;101569.16;4988896;28;20024;-86
2023/05/10 11:15:20;;;;;;;;;;;;;;;20.26;36.04;101581.47;4991826;28;19973;-87
2023/05/10 11:17:51;;;;;;;;;;;;;;;19.08;38.90;101574.91;4992194;28;19940;-88
2023/05/10 11:20:22;;;;;;;;;;;;;;;19.32;40.03;101568.22;4994131;28;20422;-86
2023/05/10 11:22:51;;;;;;;;;;;;;;;19.14;40.61;101565.97;5001021;28;19925;-87
2023/05/10 11:25:17;;;;;;;;;;;;;;;19.24;40.76;101568.34;5008092;28;19924;-87
2023/05/10 11:27:42;;;;;;;;;;;;;;;18.46;42.10;101565.41;5029108;28;20040;-87
2023/05/10 11:30:11;;;;;;;;;;;;;;;17.97;43.57;101564.16;5008948;28;19932;-82
2023/05/10 11:32:39;;;;;;;;;;;;;;;18.08;43.06;101560.13;5008289;28;19938;-88
2023/05/10 11:35:12;;;;;;;;;;;;;;;18.71;42.09;101566.78;4984197;28;19972;-89
2023/05/10 11:37:45;;;;;;;;;;;;;;;18.89;41.27;101570.94;4978474;28;19921;-88
2023/05/10 11:40:12;;;;;;;;;;;;;;;18.54;42.12;101573.47;4981996;28;19938;-86
2023/05/10 11:42:37;;;;;;;;;;;;;;;18.83;42.35;101569.03;4986608;28;19925;-91
2023/05/10 11:45:04;;;;;;;;;;;;;;;18.73;41.89;101563.81;5002915;28;20401;-89
2023/05/10 11:47:32;;;;;;;;;;;;;;;19.12;41.05;101560.69;4988976;28;19921;-87
2023/05/10 11:49:58;;;;;;;;;;;;;;;19.71;40.29;101556.78;4983161;28;20001;-90
2023/05/10 11:52:25;;;;;;;;;;;;;;;18.47;42.21;101551.63;4989630;28;19936;-91
2023/05/10 11:54:52;;;;;;;;;;;;;;;19.10;41.30;101557.31;5006268;28;20681;-89
2023/05/10 11:57:20;;;;;;;;;;;;;;;19.06;40.73;101561.50;4986413;28;19972;-88
2023/05/10 11:59:46;;;;;;;;;;;;;;;18.82;41.29;101565.44;4991544;28;20012;-88
2023/05/10 12:02:13;;;;;;;;;;;;;;;18.87;41.13;101567.56;5005052;28;19921;-87
2023/05/10 12:04:39;;;;;;;;;;;;;;;18.58;41.60;101550.25;4980695;28;19926;-87
2023/05/10 12:07:04;;;;;;;;;;;;;;;18.44;42.10;101554.72;5007166;28;19922;-87
2023/05/10 12:09:30;;;;;;;;;;;;;;;17.76;43.63;101551.25;5014006;28;20013;-87
2023/05/10 12:11:56;;;;;;;;;;;;;;;17.33;44.24;101559.19;4973961;28;19921;-86
2023/05/10 12:14:26;;;;;;;;;;;;;;;17.43;44.74;101553.47;4991663;28;19921;-86
2023/05/10 12:16:56;;;;;;;;;;;;;;;17.43;44.72;101557.03;4993196;28;20374;-88
2023/05/10 12:19:24;;;;;;;;;;;;;;;16.84;44.86;101559.56;5004357;28;20404;-89
2023/05/10 12:21:52;;;;;;;;;;;;;;;17.11;44.78;101554.59;4982201;28;19922;-88
2023/05/10 12:24:21;;;;;;;;;;;;;;;17.25;44.24;101551.91;4968806;28;19944;-90
2023/05/10 12:26:48;;;;;;;;;;;;;;;16.86;44.85;101549.38;4986209;28;20428;-89
2023/05/10 12:29:14;;;;;;;;;;;;;;;16.91;45.70;101538.81;5006427;28;20343;-89
2023/05/10 12:31:50;;;;;;;;;;;;;;;16.34;46.74;101542.69;4976688;28;19993;-90
2023/05/10 12:34:48;;;;;;;;;;;;;;;16.07;47.12;101524.19;4975730;28;19922;-93
2023/05/10 12:37:26;;;;;;;;;;;;;;;16.22;47.28;101535.97;4989783;28;20362;-96
2023/05/10 12:39:55;;;;;;;;;;;;;;;16.16;47.70;101534.81;4990165;28;19921;-94
2023/05/10 12:42:24;;;;;;;;;;;;;;;15.91;48.33;101535.91;5000047;28;20259;-93
2023/05/10 12:44:55;;;;;;;;;;;;;;;15.77;47.63;101527.47;4992296;28;20101;-90
2023/05/10 12:47:24;;;;;;;;;;;;;;;15.67;48.59;101521.38;4986241;28;19930;-92
2023/05/10 12:49:52;;;;;;;;;;;;;;;15.62;48.58;101531.91;4988097;28;20413;-93
2023/05/10 12:52:20;;;;;;;;;;;;;;;15.69;48.29;101524.78;5002203;28;19961;-91
2023/05/10 12:54:49;;;;;;;;;;;;;;;15.80;47.75;101526.28;4986036;28;19926;-95
2023/05/10 12:57:15;;;;;;;;;;;;;;;15.52;48.53;101521.25;5004545;28;19933;-94
2023/05/10 12:59:44;;;;;;;;;;;;;;;15.58;48.76;101519.72;4988840;28;19926;-94
2023/05/10 13:02:09;;;;;;;;;;;;;;;15.36;48.75;101522.13;4985877;28;19950;-92
2023/05/10 13:04:39;;;;;;;;;;;;;;;15.59;48.87;101515.97;4978730;28;19926;-92
2023/05/10 13:07:05;;;;;;;;;;;;;;;15.75;47.99;101520.53;4954200;28;19922;-92
2023/05/10 13:09:31;;;;;;;;;;;;;;;15.77;47.65;101513.94;4978256;28;19921;-94
2023/05/10 13:11:57;;;;;;;;;;;;;;;15.73;48.50;101514.44;4986417;28;19944;-91
2023/05/10 13:14:28;;;;;;;;;;;;;;;15.83;48.45;101517.81;4998068;28;19956;-93
2023/05/10 13:16:54;;;;;;;;;;;;;;;15.71;48.93;101520.06;4981625;28;19925;-93
2023/05/10 13:19:23;;;;;;;;;;;;;;;15.08;50.66;101524.34;4992873;28;19926;-93
2023/05/10 13:21:49;;;;;;;;;;;;;;;15.29;51.19;101518.41;5016193;28;19932;-91
2023/05/10 13:24:16;;;;;;;;;;;;;;;15.46;50.33;101510.25;5021719;28;19921;-92
2023/05/10 13:26:51;;;;;;;;;;;;;;;15.60;49.64;101509.56;4999037;28;19917;-92
2023/05/10 13:29:26;;;;;;;;;;;;;;;15.37;49.81;101506.72;5018987;28;19910;-92
2023/05/10 13:31:57;;;;;;;;;;;;;;;15.59;49.86;101518.69;5033002;28;19929;-93
2023/05/10 13:34:25;;;;;;;;;;;;;;;15.45;49.92;101516.69;4986938;28;19976;-92
2023/05/10 13:36:52;;;;;;;;;;;;;;;15.30;49.99;101517.38;5022703;28;19955;-91
2023/05/10 13:39:18;;;;;;;;;;;;;;;15.38;49.96;101517.41;4998245;28;19910;-90
2023/05/10 13:41:45;;;;;;;;;;;;;;;14.88;50.92;101515.72;5002209;28;19980;-88
2023/05/10 13:44:17;;;;;;;;;;;;;;;14.57;52.13;101510.94;5018324;28;19932;-92
2023/05/10 13:46:44;;;;;;;;;;;;;;;14.55;52.46;101507.56;5004105;28;20038;-90
2023/05/10 13:49:11;;;;;;;;;;;;;;;14.84;52.16;101500.81;4972274;28;20114;-90
2023/05/10 13:52:06;;;;;;;;;;;;;;;14.61;52.44;101511.47;4998857;28;19918;-90
2023/05/10 13:54:35;;;;;;;;;;;;;;;14.88;52.27;101495.91;5009886;28;19926;-91
2023/05/10 13:57:02;;;;;;;;;;;;;;;14.68;52.82;101496.25;4991483;28;19936;-92
2023/05/10 13:59:31;;;;;;;;;;;;;;;14.44;53.27;101504.28;4978578;28;19952;-90
2023/05/10 14:02:04;;;;;;;;;;;;;;;14.24;52.46;101499.16;5007701;28;19917;-88
2023/05/10 14:04:31;;;;;;;;;;;;;;;14.08;52.79;101505.34;4973151;28;20343;-91
2023/05/10 14:07:02;;;;;;;;;;;;;;;14.22;52.75;101506.59;4978060;28;19922;-88
2023/05/10 14:09:27;;;;;;;;;;;;;;;14.36;52.48;101502.41;4964581;28;19980;-90
2023/05/10 14:11:58;;;;;;;;;;;;;;;14.09;52.77;101507.06;4978854;28;20024;-93
2023/05/10 14:14:26;;;;;;;;;;;;;;;14.05;52.83;101508.41;4980607;28;19945;-94
2023/05/10 14:16:53;;;;;;;;;;;;;;;14.33;52.67;101502.75;4984798;28;19933;-92
2023/05/10 14:19:20;;;;;;;;;;;;;;;14.06;52.42;101501.13;4991646;28;20339;-91
2023/05/10 14:21:45;;;;;;;;;;;;;;;13.95;52.72;101504.97;4977472;28;19918;-92
2023/05/10 14:24:12;;;;;;;;;;;;;;;13.98;53.17;101501.09;4977948;28;20000;-88
2023/05/10 14:26:37;;;;;;;;;;;;;;;13.88;53.04;101499.38;4978349;28;20002;-90
2023/05/10 14:29:04;;;;;;;;;;;;;;;13.88;53.07;101493.97;4963034;28;19969;-90